Time;durP1;ratioP1;P1;durP2;ratioP2;P2;SDS_P1;SDS_P2;PMS_P1;PMS_P2;Temp;Humidity;BMP_temperature;BMP_pressure;BME280_temperature;BME280_humidity;BME280_pressure;Samples;Min_cycle;Max_cycle;Signal;HPM_P1;HPM_P2
2022/01/28 00:01:08;;;;;;;;;;;;;;;26.07;57.98;97235.78;623120;227;66924;-60
2022/01/28 00:03:38;;;;;;;;;;;;;;;26.06;58.24;97220.73;623333;227;65055;-60
2022/01/28 00:06:07;;;;;;;;;;;;;;;26.05;56.18;97219.12;623361;227;67312;-60
2022/01/28 00:08:35;;;;;;;;;;;;;;;26.05;58.02;97219.12;623365;227;66838;-64
2022/01/28 00:11:02;;;;;;;;;;;;;;;26.02;57.37;97219.72;623311;227;65086;-64
2022/01/28 00:13:41;;;;;;;;;;;;;;;26.01;58.37;97216.23;623295;227;67146;-64
2022/01/28 00:16:41;;;;;;;;;;;;;;;26.00;56.96;97216.52;622898;227;67406;-64
2022/01/28 00:38:13;;;;;;;;;;;;;;;25.93;58.73;97195.39;623308;227;67106;-65
2022/01/28 00:40:18;;;;;;;;;;;;;;;25.89;58.92;97187.12;621338;227;67162;-65
2022/01/28 00:42:45;;;;;;;;;;;;;;;25.87;58.95;97181.23;623273;227;62989;-65
2022/01/28 00:45:13;;;;;;;;;;;;;;;25.88;56.08;97190.89;623348;227;67618;-65
2022/01/28 00:47:40;;;;;;;;;;;;;;;25.86;58.97;97182.34;623282;227;67063;-65
2022/01/28 00:50:08;;;;;;;;;;;;;;;25.84;58.51;97192.59;623287;227;65121;-65
2022/01/28 00:52:35;;;;;;;;;;;;;;;25.83;59.14;97184.77;623293;227;67230;-65
2022/01/28 00:55:03;;;;;;;;;;;;;;;25.81;58.06;97182.39;625195;227;67121;-65
2022/01/28 00:57:31;;;;;;;;;;;;;;;25.83;58.85;97179.39;625502;227;65013;-65
2022/01/28 00:59:59;;;;;;;;;;;;;;;25.84;59.17;97183.73;625442;227;67182;-65
2022/01/28 01:02:26;;;;;;;;;;;;;;;25.80;59.33;97178.09;625471;227;66848;-65
2022/01/28 01:04:54;;;;;;;;;;;;;;;25.79;59.61;97176.50;625475;227;65005;-63
2022/01/28 01:07:21;;;;;;;;;;;;;;;25.78;59.20;97172.23;625424;227;67189;-63
2022/01/28 01:09:49;;;;;;;;;;;;;;;25.78;58.51;97163.33;625538;227;67013;-63
2022/01/28 01:12:19;;;;;;;;;;;;;;;25.77;58.98;97165.23;625420;227;62918;-63
2022/01/28 01:14:46;;;;;;;;;;;;;;;25.76;59.48;97158.27;625440;227;64989;-63
2022/01/28 01:19:50;;;;;;;;;;;;;;;25.77;59.63;97164.44;625489;227;65056;-61
2022/01/28 01:22:15;;;;;;;;;;;;;;;25.74;58.55;97156.97;625412;227;67271;-58
2022/01/28 01:24:52;;;;;;;;;;;;;;;25.72;59.91;97157.25;625542;227;66894;-58
2022/01/28 01:27:19;;;;;;;;;;;;;;;25.73;58.06;97158.04;625451;226;65114;-58
2022/01/28 01:29:47;;;;;;;;;;;;;;;25.72;59.24;97157.25;625487;227;66985;-58
2022/01/28 01:32:17;;;;;;;;;;;;;;;25.72;58.47;97151.08;625479;227;65402;-58
2022/01/28 01:34:44;;;;;;;;;;;;;;;25.72;58.48;97146.48;625509;227;62922;-60
2022/01/28 01:37:12;;;;;;;;;;;;;;;25.72;59.11;97134.92;625542;227;64801;-60
2022/01/28 01:39:42;;;;;;;;;;;;;;;25.71;58.42;97139.52;625469;227;67167;-60
2022/01/28 01:42:20;;;;;;;;;;;;;;;25.69;57.06;97130.94;625481;227;62998;-60
2022/01/28 01:45:55;;;;;;;;;;;;;;;25.68;59.21;97134.73;625070;227;67171;-60
2022/01/28 01:52:49;;;;;;;;;;;;;;;25.64;58.90;97109.50;625550;227;66772;-60
2022/01/28 01:55:17;;;;;;;;;;;;;;;25.63;58.38;97106.02;623411;227;66863;-60
2022/01/28 01:57:45;;;;;;;;;;;;;;;25.61;58.01;97093.95;623293;227;64984;-60
2022/01/28 02:00:13;;;;;;;;;;;;;;;25.61;58.08;97097.44;623298;227;67423;-60
2022/01/28 02:02:43;;;;;;;;;;;;;;;25.60;56.60;97087.77;622731;227;46853;-60
2022/01/28 02:05:10;;;;;;;;;;;;;;;25.59;58.25;97098.83;623317;227;64961;-60
2022/01/28 02:07:39;;;;;;;;;;;;;;;25.58;57.85;97089.96;623371;227;67270;-60
2022/01/28 02:10:06;;;;;;;;;;;;;;;25.58;55.00;97094.55;623325;227;66903;-60
2022/01/28 02:12:50;;;;;;;;;;;;;;;25.58;57.93;97091.86;623328;227;63811;-65
2022/01/28 02:15:19;;;;;;;;;;;;;;;25.55;59.51;97087.88;623359;227;65027;-65
2022/01/28 02:17:46;;;;;;;;;;;;;;;25.54;56.07;97091.67;623341;227;64904;-65
2022/01/28 02:20:25;;;;;;;;;;;;;;;25.54;58.67;97080.91;623368;227;62904;-65
2022/01/28 02:22:53;;;;;;;;;;;;;;;25.52;57.77;97076.91;623353;227;67188;-65
2022/01/28 02:25:22;;;;;;;;;;;;;;;25.52;61.30;97082.30;623288;227;67280;-65
2022/01/28 02:27:49;;;;;;;;;;;;;;;25.49;56.82;97077.52;623302;227;65114;-65
2022/01/28 02:30:17;;;;;;;;;;;;;;;25.48;60.69;97074.00;623324;227;64850;-64
2022/01/28 02:32:47;;;;;;;;;;;;;;;25.47;58.98;97064.34;623326;227;64863;-65
2022/01/28 02:35:15;;;;;;;;;;;;;;;25.44;56.83;97051.50;623329;227;66845;-60
2022/01/28 02:37:42;;;;;;;;;;;;;;;25.45;56.30;97053.08;623325;227;67257;-60
2022/01/28 02:40:10;;;;;;;;;;;;;;;25.45;59.53;97053.91;623354;227;64714;-60
2022/01/28 02:42:53;;;;;;;;;;;;;;;25.42;59.92;97041.02;623365;227;65050;-60
2022/01/28 02:45:24;;;;;;;;;;;;;;;25.43;59.30;97047.23;623092;227;67311;-59
2022/01/28 02:47:44;;;;;;;;;;;;;;;25.43;58.26;97052.61;622981;227;67438;-60
2022/01/28 02:50:11;;;;;;;;;;;;;;;25.40;58.46;97043.23;623327;227;65211;-64
2022/01/28 02:52:50;;;;;;;;;;;;;;;25.40;59.04;97045.11;623337;227;64902;-64
2022/01/28 02:55:11;;;;;;;;;;;;;;;25.38;58.36;97039.25;624930;227;64964;-64
2022/01/28 02:57:41;;;;;;;;;;;;;;;25.36;60.12;97042.22;625474;226;65157;-64
2022/01/28 03:00:07;;;;;;;;;;;;;;;25.36;59.50;97041.44;625459;227;64737;-64
2022/01/28 03:02:34;;;;;;;;;;;;;;;25.35;57.67;97037.95;625507;227;67156;-64
2022/01/28 03:05:26;;;;;;;;;;;;;;;25.35;58.52;97029.09;625514;227;65795;-63
2022/01/28 03:07:31;;;;;;;;;;;;;;;25.34;61.00;97020.20;624482;227;64521;-64
2022/01/28 03:12:47;;;;;;;;;;;;;;;25.32;58.55;97017.03;625497;227;63009;-64
2022/01/28 03:15:06;;;;;;;;;;;;;;;25.30;57.10;97016.53;624868;227;65224;-64
2022/01/28 03:22:49;;;;;;;;;;;;;;;25.28;59.31;97013.33;625542;227;67316;-64
2022/01/28 03:25:16;;;;;;;;;;;;;;;25.27;57.13;97013.65;625532;227;65675;-64
2022/01/28 03:30:14;;;;;;;;;;;;;;;25.24;57.37;97015.04;625549;227;67328;-59
2022/01/28 03:32:41;;;;;;;;;;;;;;;25.24;59.81;97007.77;625541;227;67001;-59
2022/01/28 03:35:10;;;;;;;;;;;;;;;25.23;58.66;97008.84;625540;227;64990;-59
2022/01/28 03:37:38;;;;;;;;;;;;;;;25.21;58.97;97002.98;625530;227;64588;-59
2022/01/28 03:40:07;;;;;;;;;;;;;;;25.19;59.68;96999.79;625553;227;64403;-59
2022/01/28 03:42:36;;;;;;;;;;;;;;;25.21;56.75;97004.88;625511;227;62914;-59
2022/01/28 03:45:04;;;;;;;;;;;;;;;25.18;58.07;97002.77;625570;227;64579;-64
2022/01/28 03:47:32;;;;;;;;;;;;;;;25.17;57.93;96995.80;625534;227;66912;-64
2022/01/28 03:49:59;;;;;;;;;;;;;;;25.16;56.67;96999.59;625543;227;65050;-59
2022/01/28 03:52:27;;;;;;;;;;;;;;;25.17;60.20;96993.11;625493;227;66924;-60
2022/01/28 03:54:54;;;;;;;;;;;;;;;25.15;57.82;96996.09;623710;227;66806;-60
2022/01/28 03:57:22;;;;;;;;;;;;;;;25.14;58.94;96991.78;623363;227;65006;-60
2022/01/28 03:59:49;;;;;;;;;;;;;;;25.16;60.43;96994.22;623355;227;67178;-59
2022/01/28 04:02:24;;;;;;;;;;;;;;;25.13;57.33;96989.41;623305;227;67248;-59
2022/01/28 04:12:58;;;;;;;;;;;;;;;25.09;59.04;96980.33;623361;227;65278;-59
2022/01/28 04:15:48;;;;;;;;;;;;;;;25.08;56.76;96990.30;623352;227;67322;-59
2022/01/28 04:18:04;;;;;;;;;;;;;;;25.05;57.44;96982.83;622875;227;64895;-60
2022/01/28 04:20:32;;;;;;;;;;;;;;;25.06;58.37;96986.31;623368;227;62991;-60
2022/01/28 04:22:59;;;;;;;;;;;;;;;25.07;60.13;96991.37;623366;227;66910;-60
2022/01/28 04:25:26;;;;;;;;;;;;;;;25.05;59.18;96988.20;623369;227;67242;-58
2022/01/28 04:27:54;;;;;;;;;;;;;;;25.05;58.55;96973.97;623330;227;65030;-58
2022/01/28 04:30:21;;;;;;;;;;;;;;;25.02;57.29;96978.84;623333;227;67244;-58
2022/01/28 04:32:51;;;;;;;;;;;;;;;25.02;57.62;96980.74;623362;227;67073;-58
2022/01/28 04:35:18;;;;;;;;;;;;;;;25.00;57.68;96974.86;623353;227;62871;-59
2022/01/28 04:38:00;;;;;;;;;;;;;;;25.01;59.96;96977.23;623371;227;64963;-59
2022/01/28 04:40:18;;;;;;;;;;;;;;;24.97;60.70;96978.94;622845;227;64823;-59
2022/01/28 04:45:26;;;;;;;;;;;;;;;24.99;59.30;96974.06;618527;227;67204;-59
2022/01/28 04:53:15;;;;;;;;;;;;;;;24.92;55.66;96972.86;623258;227;67264;-58
2022/01/28 04:58:20;;;;;;;;;;;;;;;24.91;60.59;96988.20;625469;227;65039;-59
2022/01/28 05:03:25;;;;;;;;;;;;;;;24.87;61.65;96981.80;625517;227;65099;-58
2022/01/28 05:06:11;;;;;;;;;;;;;;;24.86;59.84;96988.28;624787;227;65002;-59
2022/01/28 05:14:11;;;;;;;;;;;;;;;24.84;58.99;96977.02;607441;233;71061;-60
2022/01/28 05:16:48;;;;;;;;;;;;;;;24.83;59.44;96986.19;606545;233;65052;-61
2022/01/28 05:25:03;;;;;;;;;;;;;;;24.81;59.02;96988.38;625479;227;67220;-60
2022/01/28 05:27:05;;;;;;;;;;;;;;;24.79;61.04;96990.55;624008;227;67190;-59
2022/01/28 05:29:27;;;;;;;;;;;;;;;24.76;59.90;97000.00;625221;226;65849;-59
2022/01/28 05:31:55;;;;;;;;;;;;;;;24.76;59.11;97000.00;625535;227;66948;-59
2022/01/28 05:34:27;;;;;;;;;;;;;;;24.76;60.50;97002.69;625457;227;66896;-59
2022/01/28 05:36:52;;;;;;;;;;;;;;;24.75;60.35;97000.31;625294;227;64884;-59
2022/01/28 05:39:20;;;;;;;;;;;;;;;24.74;59.56;96998.70;625498;227;66834;-59
2022/01/28 05:41:48;;;;;;;;;;;;;;;24.71;61.36;97005.46;625478;227;65095;-59
2022/01/28 05:44:15;;;;;;;;;;;;;;;24.71;57.69;97007.36;625497;227;65065;-59
2022/01/28 05:46:44;;;;;;;;;;;;;;;24.71;60.88;97008.15;625480;227;66109;-64
2022/01/28 05:49:17;;;;;;;;;;;;;;;24.69;60.82;97006.84;625494;227;67148;-59
2022/01/28 05:51:42;;;;;;;;;;;;;;;24.67;61.08;97009.05;625194;227;65048;-59
2022/01/28 05:54:10;;;;;;;;;;;;;;;24.68;60.75;97016.02;624343;227;67248;-60
2022/01/28 05:56:37;;;;;;;;;;;;;;;24.67;60.50;97015.22;623377;227;66924;-59
2022/01/28 05:59:05;;;;;;;;;;;;;;;24.66;59.46;97026.25;623321;227;64979;-60
2022/01/28 06:01:32;;;;;;;;;;;;;;;24.64;61.09;97025.77;623336;227;67094;-59
2022/01/28 06:04:00;;;;;;;;;;;;;;;24.63;62.00;97024.95;623217;227;67134;-59
2022/01/28 06:06:28;;;;;;;;;;;;;;;24.66;61.54;97031.62;623321;227;65041;-59
2022/01/28 06:08:56;;;;;;;;;;;;;;;24.64;60.82;97039.20;623219;227;67172;-59
2022/01/28 06:11:24;;;;;;;;;;;;;;;24.63;59.48;97043.75;623367;227;65085;-59
2022/01/28 06:13:52;;;;;;;;;;;;;;;24.62;61.69;97055.61;623275;227;62677;-60
2022/01/28 06:16:19;;;;;;;;;;;;;;;24.64;61.75;97041.89;623320;227;67063;-64
2022/01/28 06:18:47;;;;;;;;;;;;;;;24.64;59.45;97049.95;623311;227;67037;-65
2022/01/28 06:21:14;;;;;;;;;;;;;;;24.65;60.35;97038.89;623297;227;65158;-65
2022/01/28 06:23:42;;;;;;;;;;;;;;;24.62;57.77;97044.86;623286;227;64907;-65
2022/01/28 06:26:09;;;;;;;;;;;;;;;24.64;56.96;97044.58;623048;227;65291;-59
2022/01/28 06:28:37;;;;;;;;;;;;;;;24.63;58.96;97051.02;623284;227;65135;-59
2022/01/28 06:31:04;;;;;;;;;;;;;;;24.64;59.36;97050.74;623324;227;67045;-59
2022/01/28 06:33:32;;;;;;;;;;;;;;;24.62;57.54;97044.06;623264;227;67343;-64
2022/01/28 06:36:01;;;;;;;;;;;;;;;24.61;59.06;97048.64;623353;227;65093;-64
2022/01/28 06:38:29;;;;;;;;;;;;;;;24.61;59.68;97050.52;623302;227;67198;-65
2022/01/28 06:40:56;;;;;;;;;;;;;;;24.62;58.98;97044.06;623301;227;67095;-64
2022/01/28 06:43:24;;;;;;;;;;;;;;;24.61;60.21;97042.45;623327;227;65054;-64
2022/01/28 06:45:51;;;;;;;;;;;;;;;24.61;60.49;97053.20;623279;227;67014;-64
2022/01/28 06:48:19;;;;;;;;;;;;;;;24.61;57.79;97045.14;623352;227;64924;-64
2022/01/28 06:50:48;;;;;;;;;;;;;;;24.59;59.70;97040.87;623326;227;63816;-64
2022/01/28 06:53:15;;;;;;;;;;;;;;;24.58;59.38;97039.28;623541;227;66912;-64
2022/01/28 06:55:43;;;;;;;;;;;;;;;24.55;59.78;97042.56;625343;227;67058;-64
2022/01/28 06:58:11;;;;;;;;;;;;;;;24.54;55.05;97042.84;625414;227;65089;-64
2022/01/28 07:00:40;;;;;;;;;;;;;;;24.57;55.54;97039.56;625504;227;67509;-64
2022/01/28 07:03:11;;;;;;;;;;;;;;;24.56;55.66;97040.66;625530;227;65013;-64
2022/01/28 07:05:39;;;;;;;;;;;;;;;24.57;54.52;97040.36;625474;227;65128;-64
2022/01/28 07:08:06;;;;;;;;;;;;;;;24.56;56.11;97040.66;624763;227;67257;-64
2022/01/28 07:10:34;;;;;;;;;;;;;;;24.55;54.36;97049.80;625324;227;64715;-62
2022/01/28 07:13:01;;;;;;;;;;;;;;;24.54;55.07;97050.90;625400;227;62970;-63
2022/01/28 07:15:29;;;;;;;;;;;;;;;24.53;55.73;97065.44;626975;224;65008;-63
2022/01/28 07:17:58;;;;;;;;;;;;;;;24.52;55.04;97063.82;625493;225;64868;-65
2022/01/28 07:20:29;;;;;;;;;;;;;;;24.52;55.62;97053.87;625328;227;65065;-64
2022/01/28 07:22:55;;;;;;;;;;;;;;;24.52;54.19;97051.18;625330;227;69302;-64
2022/01/28 07:25:23;;;;;;;;;;;;;;;24.53;57.05;97058.17;625335;227;66852;-65
2022/01/28 07:27:50;;;;;;;;;;;;;;;24.53;55.09;97052.80;625508;227;64749;-66
2022/01/28 07:30:18;;;;;;;;;;;;;;;24.52;58.27;97048.49;625395;227;67251;-66
2022/01/28 07:32:48;;;;;;;;;;;;;;;24.51;54.82;97041.53;625446;227;67008;-66
2022/01/28 07:35:14;;;;;;;;;;;;;;;24.54;58.60;97032.09;625401;226;65108;-60
2022/01/28 07:37:42;;;;;;;;;;;;;;;24.51;55.72;97020.05;625375;227;67167;-60
2022/01/28 07:40:10;;;;;;;;;;;;;;;24.47;54.66;97027.11;625584;227;66330;-64
2022/01/28 07:42:38;;;;;;;;;;;;;;;24.44;58.98;97026.88;625474;227;65063;-64
2022/01/28 07:45:08;;;;;;;;;;;;;;;24.38;51.63;97034.19;625420;227;64604;-64
2022/01/28 07:47:40;;;;;;;;;;;;;;;24.42;53.69;97024.47;625465;227;64952;-66
2022/01/28 07:50:06;;;;;;;;;;;;;;;24.47;53.89;97021.73;625107;227;62840;-64
2022/01/28 07:52:33;;;;;;;;;;;;;;;24.48;53.24;97023.32;625361;227;66964;-64
2022/01/28 07:55:01;;;;;;;;;;;;;;;24.51;57.30;97022.73;623649;227;66814;-68
2022/01/28 07:57:30;;;;;;;;;;;;;;;24.51;57.13;97011.98;624609;227;65014;-65
2022/01/28 07:59:59;;;;;;;;;;;;;;;24.52;57.29;97018.94;625444;227;64539;-66
2022/01/28 08:02:27;;;;;;;;;;;;;;;24.51;58.31;97017.36;625431;227;67154;-65
2022/01/28 08:04:55;;;;;;;;;;;;;;;24.54;60.84;97024.03;625369;227;65084;-65
2022/01/28 08:07:23;;;;;;;;;;;;;;;24.52;61.52;97021.63;625460;227;64596;-65
2022/01/28 08:09:50;;;;;;;;;;;;;;;24.53;59.54;97022.45;625400;227;67053;-64
2022/01/28 08:12:19;;;;;;;;;;;;;;;24.53;59.88;97014.39;625336;227;65083;-65
2022/01/28 08:14:46;;;;;;;;;;;;;;;24.53;62.26;97004.44;625410;227;67433;-62
2022/01/28 08:17:14;;;;;;;;;;;;;;;24.50;58.37;97007.71;625410;227;67041;-64
2022/01/28 08:19:41;;;;;;;;;;;;;;;24.51;62.12;96990.49;625355;227;65077;-65
2022/01/28 08:22:09;;;;;;;;;;;;;;;24.51;59.34;96998.55;625427;227;67326;-65
2022/01/28 08:24:36;;;;;;;;;;;;;;;24.53;58.51;96992.89;625409;227;67007;-65
2022/01/28 08:27:04;;;;;;;;;;;;;;;24.56;58.33;96990.41;625307;227;65079;-65
2022/01/28 08:29:32;;;;;;;;;;;;;;;24.50;59.03;96988.09;625360;227;67166;-64
2022/01/28 08:31:59;;;;;;;;;;;;;;;24.51;59.89;96985.13;625399;227;67042;-62
2022/01/28 08:34:27;;;;;;;;;;;;;;;24.50;58.47;96988.91;625162;227;65098;-62
2022/01/28 08:36:56;;;;;;;;;;;;;;;24.56;58.88;96992.30;625366;227;67052;-63
2022/01/28 08:39:24;;;;;;;;;;;;;;;24.49;54.25;96989.19;625294;227;67069;-63
2022/01/28 08:41:52;;;;;;;;;;;;;;;24.50;58.15;96985.40;624986;227;63003;-62
2022/01/28 08:44:19;;;;;;;;;;;;;;;24.50;59.74;96985.40;624592;227;64942;-63
2022/01/28 08:46:47;;;;;;;;;;;;;;;24.49;59.98;97000.73;625439;227;64783;-63
2022/01/28 08:49:14;;;;;;;;;;;;;;;24.48;57.81;96995.66;625376;227;63041;-65
2022/01/28 08:51:42;;;;;;;;;;;;;;;24.49;59.00;96991.88;625383;227;65039;-64
2022/01/28 08:54:09;;;;;;;;;;;;;;;24.49;56.54;97010.68;624468;226;64608;-64
2022/01/28 08:56:37;;;;;;;;;;;;;;;24.54;58.52;97005.23;623560;227;62843;-63
2022/01/28 08:59:04;;;;;;;;;;;;;;;24.54;58.44;97003.33;623463;227;67280;-65
2022/01/28 09:01:32;;;;;;;;;;;;;;;24.59;59.12;97018.58;623517;227;67344;-64
2022/01/28 09:03:59;;;;;;;;;;;;;;;24.59;58.90;97022.06;623600;227;65049;-63
2022/01/28 09:06:27;;;;;;;;;;;;;;;24.61;59.37;97011.03;623580;227;67235;-64
2022/01/28 09:08:59;;;;;;;;;;;;;;;24.65;60.73;97032.73;623557;227;67005;-64
2022/01/28 09:13:53;;;;;;;;;;;;;;;24.65;58.39;97038.89;623534;227;64931;-69
2022/01/28 09:16:21;;;;;;;;;;;;;;;24.66;58.77;97045.06;623022;227;64846;-64
2022/01/28 09:18:49;;;;;;;;;;;;;;;24.70;60.70;97038.02;623410;227;65058;-64
2022/01/28 09:21:17;;;;;;;;;;;;;;;24.72;60.16;97038.53;622203;227;66967;-64
2022/01/28 09:23:46;;;;;;;;;;;;;;;24.75;60.00;97029.88;622129;227;66972;-64
2022/01/28 09:26:14;;;;;;;;;;;;;;;24.78;59.70;97032.77;621507;227;65176;-64
2022/01/28 09:28:42;;;;;;;;;;;;;;;24.81;59.63;97032.17;617512;229;67320;-64
2022/01/28 09:31:09;;;;;;;;;;;;;;;24.82;60.81;97046.41;619916;227;67138;-64
2022/01/28 09:33:37;;;;;;;;;;;;;;;24.84;60.17;97024.61;622746;227;64781;-64
2022/01/28 09:36:06;;;;;;;;;;;;;;;24.86;60.01;97033.19;622112;227;67228;-65
2022/01/28 09:38:34;;;;;;;;;;;;;;;24.89;59.34;97032.59;621053;227;67010;-64
2022/01/28 09:41:04;;;;;;;;;;;;;;;24.90;58.76;97021.53;620594;228;65179;-64
2022/01/28 09:43:33;;;;;;;;;;;;;;;24.92;58.54;97026.63;620583;228;67301;-64
2022/01/28 09:46:04;;;;;;;;;;;;;;;24.92;59.80;97032.00;620661;228;67819;-64
2022/01/28 09:48:32;;;;;;;;;;;;;;;24.94;58.51;97041.36;620891;228;65161;-64
2022/01/28 09:51:00;;;;;;;;;;;;;;;24.96;57.68;97036.50;620908;228;65015;-64
2022/01/28 09:53:28;;;;;;;;;;;;;;;24.98;57.94;97034.28;621736;227;67150;-65
2022/01/28 09:55:55;;;;;;;;;;;;;;;24.99;59.39;97030.52;625314;227;65053;-65
2022/01/28 09:58:24;;;;;;;;;;;;;;;25.01;58.32;97022.94;625434;227;64936;-64
2022/01/28 10:00:51;;;;;;;;;;;;;;;25.01;58.93;97020.25;625408;227;64813;-65
2022/01/28 10:03:19;;;;;;;;;;;;;;;25.02;57.22;97021.86;625423;227;62837;-62
2022/01/28 10:05:50;;;;;;;;;;;;;;;25.06;58.19;97015.89;625297;227;67226;-66
2022/01/28 10:08:27;;;;;;;;;;;;;;;25.06;58.65;97013.20;625117;227;66833;-62
2022/01/28 10:11:03;;;;;;;;;;;;;;;25.00;56.60;97015.19;625409;227;62914;-68
2022/01/28 10:13:33;;;;;;;;;;;;;;;25.00;59.19;97018.66;624899;227;67289;-65
2022/01/28 10:15:58;;;;;;;;;;;;;;;25.03;59.22;97012.69;625195;227;65362;-61
2022/01/28 10:18:44;;;;;;;;;;;;;;;25.05;58.14;97025.06;625458;227;65081;-66
2022/01/28 10:21:16;;;;;;;;;;;;;;;25.08;57.12;97024.46;625427;227;65045;-66
2022/01/28 10:23:45;;;;;;;;;;;;;;;25.03;58.67;97022.66;625303;227;67125;-66
2022/01/28 10:26:13;;;;;;;;;;;;;;;24.99;58.57;97043.97;624918;227;65085;-66
2022/01/28 10:28:42;;;;;;;;;;;;;;;24.97;57.67;97035.39;625331;227;67218;-65
2022/01/28 10:31:09;;;;;;;;;;;;;;;24.97;59.77;97029.22;624995;227;67068;-66
2022/01/28 10:33:37;;;;;;;;;;;;;;;24.97;58.03;97030.02;625511;227;64852;-66
2022/01/28 10:36:04;;;;;;;;;;;;;;;24.95;58.23;97034.88;625342;227;66884;-66
2022/01/28 10:38:36;;;;;;;;;;;;;;;24.97;57.37;97045.35;625457;227;67275;-66
2022/01/28 10:41:07;;;;;;;;;;;;;;;24.99;58.11;97045.83;625368;227;63023;-66
2022/01/28 10:43:36;;;;;;;;;;;;;;;24.99;57.66;97043.14;625368;227;65346;-66
2022/01/28 10:46:05;;;;;;;;;;;;;;;24.98;57.23;97053.11;623037;227;64932;-65
2022/01/28 10:48:35;;;;;;;;;;;;;;;25.00;57.44;97048.23;625289;227;65064;-65
2022/01/28 10:51:03;;;;;;;;;;;;;;;25.01;57.02;97057.09;625345;227;67061;-65
2022/01/28 10:53:31;;;;;;;;;;;;;;;25.01;57.46;97062.47;625308;227;69317;-65
2022/01/28 10:56:00;;;;;;;;;;;;;;;25.02;57.70;97042.58;625246;227;65056;-65
2022/01/28 10:58:29;;;;;;;;;;;;;;;25.02;57.82;97054.13;625454;227;66794;-66
2022/01/28 11:00:58;;;;;;;;;;;;;;;25.04;57.57;97051.13;625442;227;65036;-66
2022/01/28 11:03:27;;;;;;;;;;;;;;;25.05;55.97;97054.63;625373;227;65130;-66
2022/01/28 11:06:02;;;;;;;;;;;;;;;25.05;58.06;97057.32;625341;227;67294;-66
2022/01/28 11:08:26;;;;;;;;;;;;;;;25.07;57.51;97049.73;624928;226;66724;-66
2022/01/28 11:10:54;;;;;;;;;;;;;;;25.09;55.87;97058.31;625420;227;63871;-59
2022/01/28 11:13:22;;;;;;;;;;;;;;;25.14;54.30;97071.67;625443;227;67173;-68
2022/01/28 11:15:49;;;;;;;;;;;;;;;25.19;52.25;97071.61;625383;227;64875;-68
2022/01/28 11:18:17;;;;;;;;;;;;;;;25.25;52.65;97048.90;625375;227;62814;-66
2022/01/28 11:20:49;;;;;;;;;;;;;;;25.29;51.45;97049.91;625414;227;45778;-66
2022/01/28 11:23:31;;;;;;;;;;;;;;;25.32;52.04;97046.63;625388;227;64840;-65
2022/01/28 11:26:17;;;;;;;;;;;;;;;25.35;52.79;97037.16;625400;227;65028;-64
2022/01/28 11:28:50;;;;;;;;;;;;;;;25.37;52.61;97035.77;625421;227;64769;-66
2022/01/28 11:31:19;;;;;;;;;;;;;;;25.38;53.87;97018.52;625316;227;65228;-66
2022/01/28 11:33:48;;;;;;;;;;;;;;;25.39;54.03;97016.62;624349;227;62748;-67
2022/01/28 11:36:17;;;;;;;;;;;;;;;25.41;53.55;97022.51;625382;227;67373;-66
2022/01/28 11:38:45;;;;;;;;;;;;;;;25.43;53.85;97026.49;622987;227;67021;-67
2022/01/28 11:41:15;;;;;;;;;;;;;;;25.44;53.63;97029.98;625458;225;65101;-66
2022/01/28 11:43:47;;;;;;;;;;;;;;;25.45;53.34;97029.69;625392;227;67354;-66
2022/01/28 11:46:28;;;;;;;;;;;;;;;25.47;53.53;97043.62;625404;227;66804;-66
2022/01/28 11:49:05;;;;;;;;;;;;;;;25.49;54.54;97031.78;625462;227;65275;-66
2022/01/28 11:51:37;;;;;;;;;;;;;;;25.51;53.68;97032.25;625128;227;66688;-67
2022/01/28 11:54:08;;;;;;;;;;;;;;;25.51;53.43;97038.45;625316;227;51808;-65
2022/01/28 11:56:40;;;;;;;;;;;;;;;25.51;54.70;97043.84;625446;227;65028;-65
2022/01/28 11:59:08;;;;;;;;;;;;;;;25.54;54.36;97042.44;624497;227;67142;-66
2022/01/28 12:01:43;;;;;;;;;;;;;;;25.55;53.86;97050.20;625387;227;66798;-67
2022/01/28 12:04:30;;;;;;;;;;;;;;;25.56;54.05;97024.08;625414;227;61860;-68
2022/01/28 12:06:59;;;;;;;;;;;;;;;25.57;54.11;97025.70;625420;227;67262;-68
2022/01/28 12:09:26;;;;;;;;;;;;;;;25.58;53.90;97025.38;625302;227;66815;-67
2022/01/28 12:11:54;;;;;;;;;;;;;;;25.57;53.83;97010.34;625390;227;65158;-67
2022/01/28 12:14:41;;;;;;;;;;;;;;;25.60;53.85;97000.87;625456;227;68149;-67
2022/01/28 12:17:26;;;;;;;;;;;;;;;25.61;54.46;97008.63;625328;227;67045;-68
2022/01/28 12:20:05;;;;;;;;;;;;;;;25.63;53.96;96997.58;625404;227;65233;-67
2022/01/28 12:22:32;;;;;;;;;;;;;;;25.64;53.91;96991.88;618874;227;65132;-68
2022/01/28 12:25:00;;;;;;;;;;;;;;;25.66;53.76;96992.38;625399;227;67168;-66
2022/01/28 12:27:29;;;;;;;;;;;;;;;25.66;53.58;96997.75;625353;227;65058;-66
2022/01/28 12:29:58;;;;;;;;;;;;;;;25.64;54.68;96999.95;625172;227;64933;-66
2022/01/28 12:32:25;;;;;;;;;;;;;;;25.65;55.86;97017.70;625380;227;66979;-66
2022/01/28 12:34:53;;;;;;;;;;;;;;;25.64;55.60;97008.02;625428;227;62732;-65
2022/01/28 12:37:23;;;;;;;;;;;;;;;25.65;54.54;97023.09;625359;227;65081;-65
2022/01/28 12:39:59;;;;;;;;;;;;;;;25.66;54.31;97021.98;625404;227;64617;-66
2022/01/28 12:42:27;;;;;;;;;;;;;;;25.68;54.67;97032.45;625393;227;62795;-66
2022/01/28 12:44:56;;;;;;;;;;;;;;;25.68;53.26;97027.08;625422;227;67287;-66
2022/01/28 12:47:25;;;;;;;;;;;;;;;25.68;53.64;97038.63;625321;227;65248;-66
2022/01/28 12:49:59;;;;;;;;;;;;;;;25.70;54.08;97051.80;625317;227;64979;-64
2022/01/28 12:52:26;;;;;;;;;;;;;;;25.72;52.47;97064.94;625301;227;64987;-65
2022/01/28 12:54:53;;;;;;;;;;;;;;;25.73;52.61;97059.27;624883;226;66678;-64
2022/01/28 12:57:21;;;;;;;;;;;;;;;25.74;53.09;97065.45;625026;227;62672;-63
2022/01/28 12:59:49;;;;;;;;;;;;;;;25.75;52.40;97065.13;625006;227;67344;-66
2022/01/28 13:02:18;;;;;;;;;;;;;;;25.76;51.88;97060.56;626155;225;66741;-65
2022/01/28 13:09:58;;;;;;;;;;;;;;;25.77;51.78;97076.40;625338;227;67605;-65
2022/01/28 13:12:29;;;;;;;;;;;;;;;25.76;53.11;97066.73;625371;227;41971;-65
2022/01/28 13:15:05;;;;;;;;;;;;;;;25.78;52.54;97082.58;625454;227;67196;-66
2022/01/28 13:17:33;;;;;;;;;;;;;;;25.77;52.08;97073.70;625362;227;66814;-67
2022/01/28 13:20:02;;;;;;;;;;;;;;;25.79;53.48;97084.19;625334;227;65051;-65
2022/01/28 13:22:31;;;;;;;;;;;;;;;25.72;52.55;97068.42;625461;227;64659;-65
2022/01/28 13:24:59;;;;;;;;;;;;;;;25.80;51.35;97075.00;625409;227;66824;-65
2022/01/28 13:27:40;;;;;;;;;;;;;;;25.81;51.64;97071.20;625422;227;65254;-67
2022/01/28 13:30:19;;;;;;;;;;;;;;;25.81;52.86;97081.97;625417;225;64649;-66
2022/01/28 13:32:41;;;;;;;;;;;;;;;25.81;51.32;97072.02;624576;227;66857;-66
2022/01/28 13:35:09;;;;;;;;;;;;;;;25.82;52.07;97078.98;625420;227;69702;-66
2022/01/28 13:37:41;;;;;;;;;;;;;;;25.83;52.44;97088.68;624539;227;66811;-66
2022/01/28 13:40:10;;;;;;;;;;;;;;;25.84;52.61;97094.89;625370;227;66792;-67
2022/01/28 13:42:41;;;;;;;;;;;;;;;25.84;51.85;97101.06;625492;227;65081;-67
2022/01/28 13:45:08;;;;;;;;;;;;;;;25.85;51.11;97091.08;622798;227;66915;-67
2022/01/28 13:47:52;;;;;;;;;;;;;;;25.86;50.81;97104.26;625296;227;66746;-66
2022/01/28 13:50:32;;;;;;;;;;;;;;;25.87;51.42;97121.99;625463;227;65020;-67
2022/01/28 13:54:15;;;;;;;;;;;;;;;25.87;52.62;97110.44;625359;227;66757;-68
2022/01/28 13:55:37;;;;;;;;;;;;;;;25.88;52.66;97125.48;618855;227;63971;-68
2022/01/28 13:58:05;;;;;;;;;;;;;;;25.87;51.54;97118.52;625465;227;65148;-67
2022/01/28 14:00:40;;;;;;;;;;;;;;;25.89;51.07;97117.12;625446;227;64440;-68
2022/01/28 14:06:34;;;;;;;;;;;;;;;25.80;51.35;97099.23;584609;227;40145;-65
2022/01/28 14:09:11;;;;;;;;;;;;;;;25.92;51.54;97126.48;625243;227;66877;-65
2022/01/28 14:11:43;;;;;;;;;;;;;;;25.95;51.77;97141.25;614998;227;64775;-67
2022/01/28 14:14:29;;;;;;;;;;;;;;;25.95;50.21;97139.34;625442;227;63226;-67
2022/01/28 14:16:51;;;;;;;;;;;;;;;25.97;51.69;97147.11;624864;227;64872;-66
2022/01/28 14:19:19;;;;;;;;;;;;;;;25.98;53.23;97156.80;625516;227;64952;-66